Main page
METAR-TAF:

METAR-TAF

Airports :

William H. Morse State Airport

Bennington, Vermont, United States

latitude: 42-53-24N, longitude: 073-14-47W, elevation: 827 ft

Current weather observation

The report was made 1 hour and 5 minutes ago, at 03:54 UTC
Calm wind
Temperature 23°F
Humidity 68%
Pressure 30.32 in. Hg
Visibility: 10 miles
Clear sky

METAR: KDDH 240354Z AUTO 00000KT 10SM CLR M05/M10 A3032 RMK AO2 SLP278 T10501100

Time: 23:59 (04:59 UTC)


TAF: missing

Weather observations and forecasts of more than 4000 airports (METAR and TAF reports).

The available stations are represented by yellow and red dots on the map.

Hover mouse over dot to see the name of the station.

Then click to see weather observations and forecasts.

To change the map : click on the green buttons with a black cross to zoom in, on the green button with a dash to zoom out, or on the green arrows for adjacent maps.


METAR-TAF: